Dixon, California
Current Conditions -  °F | °C
As of 8:55 PM on Friday 21 Nov 2014 (Local Time) from KEDU Reporting Station
Overcast Overcast  
Wind Chill: 54°   Ceiling: 4800
Heat Index: 54°   Visibility: 5mi
Dew Point: 50°   Wind: 7mph
Humidity: 88%   Direction: 140°SE
Pressure: 30.11"   Gusts: NA
Location:  38.45°N, 121.81°W
Report Text: KEDU 220455Z AUTO 14006KT 5SM SCT038 OVC048 12/10 A3011 RMK AO1
Loading
Personal Weather Stations






























Interactive Weather Map New forecast layout! Learn more

10-Day Weather Forecast

Advertisements
Track Severe Weather on mobile